createdAt,value
2022-09-12T00:01:20.661Z,76.60
2022-09-12T00:03:49.321Z,76.75
2022-09-12T00:06:24.542Z,76.92
2022-09-12T00:08:56.148Z,77.08
2022-09-12T00:11:25.605Z,77.17
2022-09-12T00:13:59.316Z,77.00
2022-09-12T00:16:30.467Z,76.90
2022-09-12T00:18:58.677Z,76.90
2022-09-12T00:21:27.322Z,77.04
2022-09-12T00:23:55.455Z,77.26
2022-09-12T00:26:23.263Z,77.52
2022-09-12T00:28:51.548Z,77.52
2022-09-12T00:31:24.443Z,77.50
2022-09-12T00:33:55.237Z,77.53
2022-09-12T00:36:25.253Z,77.44
2022-09-12T00:38:54.132Z,77.38
2022-09-12T00:41:29.786Z,77.39
2022-09-12T00:44:27.335Z,77.42
2022-09-12T00:47:05.205Z,77.44
2022-09-12T00:49:53.090Z,77.27
2022-09-12T00:52:35.312Z,77.22
2022-09-12T00:55:11.408Z,77.17
2022-09-12T00:58:01.371Z,77.12
2022-09-12T01:00:29.656Z,77.09
2022-09-12T01:03:02.422Z,77.05
2022-09-12T01:05:33.961Z,77.23
2022-09-12T01:08:04.598Z,77.54
2022-09-12T01:10:35.133Z,77.63
2022-09-12T01:13:06.765Z,77.66
2022-09-12T01:15:36.301Z,77.72
2022-09-12T01:18:35.326Z,77.80
2022-09-12T01:21:46.745Z,77.89
2022-09-12T01:24:50.309Z,77.92
2022-09-12T01:28:04.214Z,77.93
2022-09-12T01:31:10.441Z,77.89
2022-09-12T01:34:10.990Z,77.73
2022-09-12T01:37:13.716Z,77.74
2022-09-12T01:40:15.113Z,77.62
2022-09-12T01:43:05.601Z,77.59
2022-09-12T01:45:46.194Z,77.59
2022-09-12T01:48:28.008Z,77.53
2022-09-12T01:51:38.010Z,77.55
2022-09-12T01:54:20.417Z,77.54
2022-09-12T01:56:53.175Z,77.70
2022-09-12T01:59:29.401Z,77.79
2022-09-12T02:02:11.897Z,77.86
2022-09-12T02:04:59.683Z,77.81
2022-09-12T02:07:44.125Z,78.00
2022-09-12T02:10:21.951Z,78.00
2022-09-12T02:13:10.248Z,78.11
2022-09-12T02:15:43.036Z,78.18
2022-09-12T02:18:14.558Z,78.18
2022-09-12T02:20:48.581Z,78.31
2022-09-12T02:23:25.137Z,78.38
2022-09-12T02:25:57.515Z,78.28
2022-09-12T02:28:33.136Z,78.23
2022-09-12T02:31:21.120Z,78.32
2022-09-12T02:34:06.218Z,78.46
2022-09-12T02:36:43.051Z,78.58
2022-09-12T02:39:10.884Z,78.63
2022-09-12T02:41:38.605Z,78.63
2022-09-12T02:44:06.359Z,78.45
2022-09-12T02:46:39.145Z,78.29
2022-09-12T02:49:09.342Z,78.26
2022-09-12T02:51:37.250Z,78.28
2022-09-12T02:54:07.244Z,78.30
2022-09-12T02:56:34.941Z,78.43
2022-09-12T02:59:09.604Z,78.40
2022-09-12T03:02:11.346Z,78.39
2022-09-12T03:05:02.061Z,78.45
2022-09-12T03:07:53.618Z,78.59
2022-09-12T03:10:48.113Z,78.63
2022-09-12T03:13:39.420Z,78.68
2022-09-12T03:16:37.004Z,78.73
2022-09-12T03:19:48.124Z,78.83
2022-09-12T03:22:33.280Z,78.93
2022-09-12T03:25:17.516Z,79.04
2022-09-12T03:28:03.509Z,79.09
2022-09-12T03:30:31.202Z,79.11
2022-09-12T03:32:58.567Z,79.18
2022-09-12T03:35:26.172Z,79.00
2022-09-12T03:37:53.962Z,78.81
2022-09-12T03:40:21.488Z,78.77
2022-09-12T03:42:48.949Z,78.78
2022-09-12T03:45:16.598Z,78.76
2022-09-12T03:47:44.107Z,78.72
2022-09-12T03:50:11.887Z,78.71
2022-09-12T03:52:39.561Z,78.71
2022-09-12T03:55:07.733Z,78.72
2022-09-12T03:57:35.290Z,78.76
2022-09-12T04:00:07.104Z,78.82
2022-09-12T04:02:37.127Z,78.83
2022-09-12T04:05:05.561Z,78.88
2022-09-12T04:07:33.192Z,79.02
2022-09-12T04:10:00.949Z,79.20
2022-09-12T04:12:29.795Z,79.32
2022-09-12T04:14:57.194Z,79.35
2022-09-12T04:17:24.964Z,79.37
2022-09-12T04:19:52.489Z,79.59
2022-09-12T04:22:20.648Z,79.74
2022-09-12T04:24:48.436Z,79.61
2022-09-12T04:27:16.044Z,79.54
2022-09-12T04:29:43.621Z,79.56
2022-09-12T04:32:11.199Z,79.66
2022-09-12T04:34:38.691Z,79.68
2022-09-12T04:37:06.019Z,79.67
2022-09-12T04:39:33.784Z,79.66
2022-09-12T04:42:02.153Z,79.67
2022-09-12T04:44:29.781Z,79.86
2022-09-12T04:46:57.453Z,80.04
2022-09-12T04:49:25.081Z,80.19
2022-09-12T04:51:54.683Z,80.21
2022-09-12T04:54:22.543Z,80.23
2022-09-12T04:56:52.189Z,80.29
2022-09-12T04:59:21.696Z,80.44
2022-09-12T05:01:49.798Z,80.51
2022-09-12T05:04:17.767Z,80.64
2022-09-12T05:06:46.924Z,80.63
2022-09-12T05:09:16.039Z,80.68
2022-09-12T05:12:04.129Z,80.75
2022-09-12T05:14:14.319Z,80.87
2022-09-12T05:16:46.060Z,80.92
2022-09-12T05:19:12.260Z,81.06
2022-09-12T05:21:39.992Z,81.11
2022-09-12T05:24:09.042Z,81.12
2022-09-12T05:26:36.885Z,81.18
2022-09-12T05:29:06.575Z,81.05
2022-09-12T05:31:35.023Z,81.01
2022-09-12T05:34:04.531Z,80.97
2022-09-12T05:36:32.865Z,80.92
2022-09-12T05:39:01.007Z,80.94
2022-09-12T05:41:33.094Z,80.93
2022-09-12T05:44:05.038Z,80.80
2022-09-12T05:46:39.628Z,80.81
2022-09-12T05:49:12.698Z,80.94
2022-09-12T05:51:45.369Z,80.91
2022-09-12T05:54:17.584Z,81.23
2022-09-12T05:56:46.189Z,81.23
2022-09-12T05:59:20.095Z,80.85
2022-09-12T06:01:48.106Z,80.63
2022-09-12T06:04:16.701Z,80.57
2022-09-12T06:06:45.637Z,80.53
2022-09-12T06:09:15.792Z,80.58
2022-09-12T06:11:44.754Z,80.46
2022-09-12T06:14:16.095Z,79.61
2022-09-12T06:16:44.005Z,79.53
2022-09-12T06:19:21.160Z,79.41
2022-09-12T06:21:51.128Z,79.73
2022-09-12T06:24:20.549Z,80.18
2022-09-12T06:26:52.149Z,77.86
2022-09-12T06:29:20.043Z,77.34
2022-09-12T06:31:47.754Z,77.20
2022-09-12T06:34:16.371Z,76.33
2022-09-12T06:36:47.635Z,76.10
2022-09-12T06:39:22.200Z,75.29
2022-09-12T06:41:51.544Z,75.31
2022-09-12T06:44:22.137Z,74.64
2022-09-12T06:46:49.804Z,75.13
2022-09-12T06:49:17.596Z,75.69
2022-09-12T06:51:45.364Z,76.09
2022-09-12T06:54:15.110Z,74.46
2022-09-12T06:56:43.563Z,74.43
2022-09-12T06:59:11.050Z,71.78
2022-09-12T07:01:39.582Z,71.99
2022-09-12T07:04:07.166Z,69.39
2022-09-12T07:06:40.993Z,67.59
2022-09-12T07:09:13.233Z,69.29
2022-09-12T07:11:42.550Z,70.85
2022-09-12T07:14:13.473Z,67.17
2022-09-12T07:16:41.788Z,68.16
2022-09-12T07:19:09.688Z,70.27
2022-09-12T07:21:39.199Z,69.44
2022-09-12T07:24:09.280Z,66.70
2022-09-12T07:26:39.327Z,66.20
2022-09-12T07:31:36.319Z,65.65
2022-09-12T07:34:06.431Z,64.89
2022-09-12T07:36:34.471Z,66.99
2022-09-12T07:39:02.165Z,64.06
2022-09-12T07:41:33.506Z,63.49
2022-09-12T07:44:03.510Z,62.78
2022-09-12T07:46:32.843Z,61.47
2022-09-12T07:49:01.821Z,62.99
2022-09-12T07:51:30.779Z,63.02
2022-09-12T07:53:59.251Z,61.74
2022-09-12T07:56:31.941Z,61.52
2022-09-12T07:58:58.696Z,63.07
2022-09-12T08:01:27.306Z,60.37
2022-09-12T08:03:58.439Z,61.10
2022-09-12T08:06:30.586Z,59.07
2022-09-12T08:08:59.553Z,61.07
2022-09-12T08:11:29.441Z,59.67
2022-09-12T08:13:58.358Z,60.10
2022-09-12T08:16:30.474Z,58.68
2022-09-12T08:19:01.402Z,59.09
2022-09-12T08:21:33.663Z,58.76
2022-09-12T08:24:05.335Z,58.35
2022-09-12T08:26:34.505Z,58.30
2022-09-12T08:29:03.671Z,57.37
2022-09-12T08:31:33.659Z,56.91
2022-09-12T08:34:01.439Z,56.61
2022-09-12T08:36:29.609Z,57.70
2022-09-12T08:39:05.416Z,56.06
2022-09-12T08:41:47.623Z,57.24
2022-09-12T08:44:26.827Z,54.83
2022-09-12T08:47:31.203Z,56.33
2022-09-12T08:50:11.104Z,56.42
2022-09-12T08:52:53.127Z,55.96
2022-09-12T08:55:34.716Z,55.51
2022-09-12T08:58:20.137Z,54.98
2022-09-12T09:01:16.080Z,54.02
2022-09-12T09:04:10.386Z,51.13
2022-09-12T09:06:49.379Z,54.91
2022-09-12T09:09:40.085Z,53.34
2022-09-12T09:12:38.888Z,51.93
2022-09-12T09:15:24.389Z,52.76
2022-09-12T09:18:06.458Z,50.64
2022-09-12T09:20:48.087Z,52.40
2022-09-12T09:23:33.246Z,52.86
2022-09-12T09:26:13.762Z,52.29
2022-09-12T09:28:52.468Z,50.84
2022-09-12T09:31:26.683Z,50.08
2022-09-12T09:33:54.945Z,46.01
2022-09-12T09:36:52.148Z,49.33
2022-09-12T09:39:55.163Z,47.63
2022-09-12T09:42:55.538Z,47.80
2022-09-12T09:45:27.364Z,48.99
2022-09-12T09:48:19.003Z,47.80
2022-09-12T09:50:49.493Z,46.86
2022-09-12T09:53:47.267Z,45.43
2022-09-12T09:56:32.662Z,45.87
2022-09-12T09:59:19.627Z,44.55
2022-09-12T10:02:01.826Z,45.73
2022-09-12T10:04:39.252Z,47.35
2022-09-12T10:07:05.934Z,45.87
2022-09-12T10:09:36.041Z,47.00
2022-09-12T10:12:28.057Z,45.95
2022-09-12T10:15:06.521Z,47.48
2022-09-12T10:17:43.399Z,47.97
2022-09-12T10:20:40.667Z,44.47
2022-09-12T10:23:35.763Z,45.25
2022-09-12T10:26:11.620Z,41.71
2022-09-12T10:28:50.487Z,40.88
2022-09-12T10:31:35.619Z,42.85
2022-09-12T10:34:05.070Z,42.43
2022-09-12T10:36:38.892Z,41.93
2022-09-12T10:39:07.102Z,44.04
2022-09-12T10:41:40.850Z,44.21
2022-09-12T10:44:15.932Z,42.28
2022-09-12T10:46:44.066Z,39.84
2022-09-12T10:49:28.330Z,38.21
2022-09-12T10:51:59.145Z,38.71
2022-09-12T10:54:28.059Z,40.55
2022-09-12T10:57:23.841Z,41.51
2022-09-12T11:00:17.446Z,40.70
2022-09-12T11:03:01.156Z,40.66
2022-09-12T11:05:55.818Z,39.33
2022-09-12T11:08:59.654Z,37.94
2022-09-12T11:12:03.331Z,38.69
2022-09-12T11:14:54.033Z,38.86
2022-09-12T11:17:51.494Z,37.59
2022-09-12T11:20:33.523Z,37.22
2022-09-12T11:26:15.918Z,36.82
2022-09-12T11:29:04.522Z,38.96
2022-09-12T11:32:17.204Z,38.80
2022-09-12T11:34:59.312Z,37.45
2022-09-12T11:37:40.609Z,37.75
2022-09-12T11:40:15.327Z,36.94
2022-09-12T11:42:45.983Z,36.84
2022-09-12T11:45:21.716Z,37.56
2022-09-12T11:47:53.550Z,37.55
2022-09-12T11:50:30.517Z,37.90
2022-09-12T11:53:06.618Z,36.63
2022-09-12T11:55:45.883Z,38.34
2022-09-12T11:58:14.809Z,38.60
2022-09-12T12:00:51.274Z,38.66
2022-09-12T12:03:30.019Z,38.21
2022-09-12T12:06:08.640Z,38.43
2022-09-12T12:08:43.187Z,39.13
2022-09-12T12:11:13.867Z,37.37
2022-09-12T12:13:51.870Z,37.64
2022-09-12T12:16:29.710Z,40.01
2022-09-12T12:19:06.494Z,37.97
2022-09-12T12:21:46.409Z,36.86
2022-09-12T12:24:24.440Z,34.44
2022-09-12T12:27:03.011Z,36.39
2022-09-12T12:29:43.878Z,38.43
2022-09-12T12:32:20.482Z,36.39
2022-09-12T12:34:48.397Z,36.52
2022-09-12T12:37:31.784Z,38.30
2022-09-12T12:40:13.494Z,38.06
2022-09-12T12:42:50.108Z,38.68
2022-09-12T12:45:31.716Z,37.26
2022-09-12T12:48:13.356Z,38.61
2022-09-12T12:50:41.418Z,39.05
2022-09-12T12:53:27.884Z,37.84
2022-09-12T12:55:57.200Z,36.42
2022-09-12T12:58:41.375Z,36.00
2022-09-12T13:01:20.894Z,36.76
2022-09-12T13:04:06.159Z,35.80
2022-09-12T13:06:44.070Z,35.19
2022-09-12T13:09:23.545Z,36.56
2022-09-12T13:12:03.710Z,36.41
2022-09-12T13:14:54.047Z,36.53
2022-09-12T13:17:41.763Z,36.68
2022-09-12T13:20:28.222Z,36.97
2022-09-12T13:22:53.598Z,36.54
2022-09-12T13:25:29.434Z,36.98
2022-09-12T13:28:06.949Z,36.75
2022-09-12T13:30:39.632Z,37.13
2022-09-12T13:33:28.742Z,37.54
2022-09-12T13:36:29.076Z,38.54
2022-09-12T13:39:10.805Z,38.80
2022-09-12T13:42:29.494Z,38.67
2022-09-12T13:45:09.560Z,38.67
2022-09-12T13:47:46.719Z,38.32
2022-09-12T13:50:21.806Z,39.21
2022-09-12T13:53:00.198Z,38.50
2022-09-12T13:55:31.651Z,39.53
2022-09-12T13:58:04.148Z,39.75
2022-09-12T14:00:34.401Z,39.85
2022-09-12T14:03:20.633Z,39.06
2022-09-12T14:05:55.241Z,38.80
2022-09-12T14:08:23.879Z,39.38
2022-09-12T14:10:51.372Z,38.43
2022-09-12T14:13:27.523Z,38.82
2022-09-12T14:15:56.718Z,39.46
2022-09-12T14:18:33.779Z,40.02
2022-09-12T14:21:12.222Z,39.55
2022-09-12T14:23:46.939Z,39.78
2022-09-12T14:26:17.262Z,40.31
2022-09-12T14:28:48.899Z,39.19
2022-09-12T14:31:23.877Z,40.36
2022-09-12T14:33:55.945Z,38.97
2022-09-12T14:36:35.030Z,39.26
2022-09-12T14:39:06.573Z,40.39
2022-09-12T14:41:38.252Z,40.68
2022-09-12T14:44:10.674Z,41.02
2022-09-12T14:46:41.755Z,41.75
2022-09-12T14:49:32.197Z,40.86
2022-09-12T14:52:10.544Z,40.64
2022-09-12T14:54:41.207Z,40.26
2022-09-12T14:57:33.573Z,40.14
2022-09-12T15:00:15.482Z,41.03
2022-09-12T15:02:44.370Z,40.65
2022-09-12T15:05:17.539Z,41.26
2022-09-12T15:07:58.065Z,41.50
2022-09-12T15:10:31.113Z,41.15
2022-09-12T15:13:15.754Z,39.78
2022-09-12T15:15:53.620Z,40.14
2022-09-12T15:18:26.262Z,40.50
2022-09-12T15:21:03.067Z,40.74
2022-09-12T15:23:48.324Z,40.58
2022-09-12T15:26:22.794Z,41.29
2022-09-12T15:28:51.474Z,41.15
2022-09-12T15:31:27.180Z,41.64
2022-09-12T15:33:56.555Z,42.23
2022-09-12T15:36:25.874Z,42.91
2022-09-12T15:38:53.851Z,43.23
2022-09-12T15:41:26.595Z,43.39
2022-09-12T15:43:55.646Z,44.24
2022-09-12T15:46:23.428Z,44.12
2022-09-12T15:48:50.873Z,44.67
2022-09-12T15:51:21.455Z,45.61
2022-09-12T15:53:50.458Z,46.08
2022-09-12T15:56:20.513Z,45.61
2022-09-12T15:58:59.097Z,46.31
2022-09-12T16:01:19.132Z,46.31
2022-09-12T16:03:47.326Z,46.55
2022-09-12T16:06:15.348Z,46.93
2022-09-12T16:08:43.164Z,47.02
2022-09-12T16:11:22.903Z,47.23
2022-09-12T16:13:53.201Z,47.31
2022-09-12T16:16:21.183Z,47.64
2022-09-12T16:18:48.921Z,47.99
2022-09-12T16:21:16.823Z,48.27
2022-09-12T16:23:45.641Z,48.37
2022-09-12T16:26:13.176Z,48.34
2022-09-12T16:28:40.993Z,48.53
2022-09-12T16:31:12.513Z,48.67
2022-09-12T16:33:40.659Z,48.84
2022-09-12T16:36:12.028Z,48.77
2022-09-12T16:38:44.996Z,48.88
2022-09-12T16:41:13.650Z,48.91
2022-09-12T16:43:42.528Z,48.91
2022-09-12T16:46:17.519Z,48.99
2022-09-12T16:48:52.472Z,49.05
2022-09-12T16:51:23.985Z,49.00
2022-09-12T16:53:52.083Z,49.12
2022-09-12T16:56:19.711Z,49.16
2022-09-12T16:58:47.632Z,49.01
2022-09-12T17:01:21.295Z,49.15
2022-09-12T17:03:54.084Z,49.30
2022-09-12T17:06:21.446Z,49.52
2022-09-12T17:08:52.153Z,49.66
2022-09-12T17:11:23.637Z,49.92
2022-09-12T17:14:10.701Z,50.09
2022-09-12T17:16:25.038Z,50.19
2022-09-12T17:18:53.043Z,50.53
2022-09-12T17:21:21.157Z,50.76
2022-09-12T17:23:49.329Z,50.72
2022-09-12T17:26:17.396Z,50.83
2022-09-12T17:28:45.368Z,50.92
2022-09-12T17:31:14.554Z,50.96
2022-09-12T17:33:42.302Z,50.96
2022-09-12T17:36:15.527Z,51.00
2022-09-12T17:38:45.419Z,51.06
2022-09-12T17:41:17.203Z,51.20
2022-09-12T17:43:50.407Z,51.52
2022-09-12T17:46:20.343Z,51.79
2022-09-12T17:48:55.907Z,52.02
2022-09-12T17:51:25.653Z,52.36
2022-09-12T17:54:00.581Z,52.40
2022-09-12T17:56:31.217Z,52.28
2022-09-12T17:59:00.033Z,52.10
2022-09-12T18:01:47.919Z,52.17
2022-09-12T18:04:16.839Z,52.27
2022-09-12T18:06:46.016Z,52.66
2022-09-12T18:09:17.151Z,53.08
2022-09-12T18:11:45.735Z,53.48
2022-09-12T18:14:14.401Z,53.70
2022-09-12T18:16:43.368Z,53.97
2022-09-12T18:19:11.561Z,54.22
2022-09-12T18:21:39.255Z,54.37
2022-09-12T18:24:07.266Z,54.58
2022-09-12T18:26:34.676Z,54.76
2022-09-12T18:29:02.187Z,54.86
2022-09-12T18:31:31.205Z,54.89
2022-09-12T18:34:02.024Z,55.06
2022-09-12T18:36:30.513Z,55.14
2022-09-12T18:38:59.196Z,55.18
2022-09-12T18:41:28.433Z,55.17
2022-09-12T18:44:01.625Z,55.16
2022-09-12T18:46:31.442Z,55.20
2022-09-12T18:49:00.882Z,55.08
2022-09-12T18:51:33.077Z,55.17
2022-09-12T18:54:08.295Z,55.33
2022-09-12T18:56:37.799Z,55.51
2022-09-12T18:59:07.590Z,55.72
2022-09-12T19:01:37.723Z,55.96
2022-09-12T19:04:07.039Z,55.99
2022-09-12T19:06:40.914Z,56.04
2022-09-12T19:09:09.883Z,56.09
2022-09-12T19:11:41.865Z,56.12
2022-09-12T19:14:09.250Z,56.27
2022-09-12T19:16:36.868Z,56.33
2022-09-12T19:19:04.394Z,56.45
2022-09-12T19:21:33.828Z,56.48
2022-09-12T19:24:08.916Z,56.67
2022-09-12T19:26:38.362Z,56.91
2022-09-12T19:29:06.646Z,57.29
2022-09-12T19:31:34.456Z,57.43
2022-09-12T19:34:04.859Z,57.50
2022-09-12T19:36:44.829Z,57.70
2022-09-12T19:39:05.406Z,57.87
2022-09-12T19:41:33.498Z,58.22
2022-09-12T19:44:01.464Z,58.48
2022-09-12T19:46:28.623Z,58.66
2022-09-12T19:48:56.078Z,58.37
2022-09-12T19:51:23.586Z,58.69
2022-09-12T19:53:51.519Z,58.92
2022-09-12T19:56:19.087Z,59.19
2022-09-12T19:58:51.017Z,59.29
2022-09-12T20:01:24.382Z,59.58
2022-09-12T20:03:53.215Z,59.84
2022-09-12T20:06:20.746Z,60.18
2022-09-12T20:08:48.586Z,60.54
2022-09-12T20:11:19.442Z,60.93
2022-09-12T20:13:47.616Z,61.41
2022-09-12T20:16:22.182Z,61.69
2022-09-12T20:18:56.183Z,62.03
2022-09-12T20:21:28.029Z,62.34
2022-09-12T20:23:55.353Z,62.59
2022-09-12T20:26:24.540Z,62.93
2022-09-12T20:28:52.174Z,63.12
2022-09-12T20:31:19.561Z,63.50
2022-09-12T20:33:51.658Z,63.64
2022-09-12T20:36:19.630Z,63.79
2022-09-12T20:38:51.787Z,64.03
2022-09-12T20:41:20.751Z,64.38
2022-09-12T20:43:52.830Z,64.44
2022-09-12T20:46:27.289Z,64.60
2022-09-12T20:48:55.403Z,64.78
2022-09-12T20:51:25.314Z,64.85
2022-09-12T20:53:54.997Z,65.05
2022-09-12T20:56:24.023Z,65.16
2022-09-12T20:58:51.543Z,65.15
2022-09-12T21:01:19.222Z,65.00
2022-09-12T21:03:47.144Z,64.83
2022-09-12T21:06:19.043Z,64.71
2022-09-12T21:08:48.661Z,64.72
2022-09-12T21:11:18.243Z,64.81
2022-09-12T21:13:46.703Z,64.75
2022-09-12T21:16:18.397Z,64.79
2022-09-12T21:18:46.538Z,64.86
2022-09-12T21:21:15.906Z,64.87
2022-09-12T21:23:43.766Z,64.99
2022-09-12T21:26:11.573Z,65.14
2022-09-12T21:28:39.419Z,65.17
2022-09-12T21:31:08.013Z,65.33
2022-09-12T21:33:35.721Z,65.49
2022-09-12T21:36:05.757Z,65.47
2022-09-12T21:38:34.085Z,65.57
2022-09-12T21:41:09.446Z,65.69
2022-09-12T21:43:37.962Z,65.89
2022-09-12T21:46:06.662Z,66.13
2022-09-12T21:48:35.166Z,66.25
2022-09-12T21:51:03.824Z,66.26
2022-09-12T21:53:31.754Z,66.37
2022-09-12T21:56:08.119Z,66.42
2022-09-12T21:58:36.937Z,66.52
2022-09-12T22:01:07.742Z,66.51
2022-09-12T22:03:35.256Z,66.54
2022-09-12T22:06:06.450Z,66.66
2022-09-12T22:08:35.444Z,66.69
2022-09-12T22:11:08.489Z,66.78
2022-09-12T22:13:42.957Z,66.92
2022-09-12T22:16:11.149Z,67.01
2022-09-12T22:18:39.063Z,67.17
2022-09-12T22:21:12.889Z,67.32
2022-09-12T22:23:59.102Z,67.37
2022-09-12T22:26:26.958Z,67.44
2022-09-12T22:28:55.069Z,67.59
2022-09-12T22:31:22.659Z,67.50
2022-09-12T22:33:51.030Z,67.37
2022-09-12T22:36:18.630Z,67.24
2022-09-12T22:38:46.159Z,66.99
2022-09-12T22:41:14.038Z,66.75
2022-09-12T22:43:41.659Z,66.50
2022-09-12T22:46:11.899Z,66.46
2022-09-12T22:48:40.121Z,66.51
2022-09-12T22:51:08.138Z,66.46
2022-09-12T22:53:36.515Z,66.44
2022-09-12T22:56:05.966Z,66.43
2022-09-12T22:58:36.584Z,66.45
2022-09-12T23:01:06.531Z,66.34
2022-09-12T23:03:35.875Z,66.43
2022-09-12T23:06:05.005Z,66.45
2022-09-12T23:08:35.901Z,66.68
2022-09-12T23:11:10.432Z,66.77
2022-09-12T23:13:44.431Z,66.99
2022-09-12T23:16:24.627Z,67.23
2022-09-12T23:18:52.650Z,67.48
2022-09-12T23:21:21.999Z,67.57
2022-09-12T23:23:50.697Z,67.68
2022-09-12T23:26:24.319Z,67.78
2022-09-12T23:28:55.701Z,67.84
2022-09-12T23:31:26.147Z,67.83
2022-09-12T23:33:55.109Z,67.91
2022-09-12T23:36:24.502Z,67.96
2022-09-12T23:38:53.519Z,67.92
2022-09-12T23:41:21.876Z,67.98
2022-09-12T23:43:50.201Z,67.98
2022-09-12T23:46:18.332Z,68.17
2022-09-12T23:48:46.169Z,68.14
2022-09-12T23:51:14.612Z,68.17
2022-09-12T23:53:42.401Z,68.25
2022-09-12T23:56:10.540Z,68.23
2022-09-12T23:58:38.229Z,68.25
